createdAt,value
2023-02-01T00:00:49.815Z,1013.17
2023-02-01T00:01:49.840Z,1013.15
2023-02-01T00:02:49.919Z,1013.19
2023-02-01T00:03:49.855Z,1013.23
2023-02-01T00:04:49.765Z,1013.25
2023-02-01T00:05:49.775Z,1013.26
2023-02-01T00:06:49.769Z,1013.24
2023-02-01T00:07:49.774Z,1013.27
2023-02-01T00:08:49.785Z,1013.32
2023-02-01T00:09:49.731Z,1013.33
2023-02-01T00:10:49.736Z,1013.37
2023-02-01T00:11:49.700Z,1013.38
2023-02-01T00:12:49.698Z,1013.44
2023-02-01T00:13:49.667Z,1013.48
2023-02-01T00:14:49.662Z,1013.48
2023-02-01T00:15:49.705Z,1013.40
2023-02-01T00:16:49.647Z,1013.44
2023-02-01T00:17:49.643Z,1013.33
2023-02-01T00:18:49.647Z,1013.39
2023-02-01T00:19:49.606Z,1013.38
2023-02-01T00:20:49.603Z,1013.36
2023-02-01T00:21:49.606Z,1013.35
2023-02-01T00:22:49.588Z,1013.41
2023-02-01T00:23:49.586Z,1013.39
2023-02-01T00:24:49.562Z,1013.41
2023-02-01T00:25:49.555Z,1013.32
2023-02-01T00:26:49.688Z,1013.34
2023-02-01T00:27:49.534Z,1013.36
2023-02-01T00:28:49.539Z,1013.31
2023-02-01T00:29:49.545Z,1013.32
2023-02-01T00:30:49.523Z,1013.32
2023-02-01T00:31:49.551Z,1013.30
2023-02-01T00:32:49.476Z,1013.37
2023-02-01T00:33:49.479Z,1013.39
2023-02-01T00:34:49.478Z,1013.44
2023-02-01T00:35:49.452Z,1013.40
2023-02-01T00:36:49.444Z,1013.36
2023-02-01T00:37:49.414Z,1013.37
2023-02-01T00:38:49.415Z,1013.40
2023-02-01T00:39:49.423Z,1013.38
2023-02-01T00:40:49.420Z,1013.43
2023-02-01T00:41:49.379Z,1013.48
2023-02-01T00:42:49.372Z,1013.41
2023-02-01T00:43:49.374Z,1013.40
2023-02-01T00:44:49.335Z,1013.38
2023-02-01T00:45:49.343Z,1013.36
2023-02-01T00:46:49.374Z,1013.33
2023-02-01T00:47:49.352Z,1013.35
2023-02-01T00:48:49.300Z,1013.37
2023-02-01T00:49:49.275Z,1013.35
2023-02-01T00:50:49.292Z,1013.33
2023-02-01T00:51:49.269Z,1013.30
2023-02-01T00:52:49.271Z,1013.31
2023-02-01T00:53:49.267Z,1013.28
2023-02-01T00:54:49.249Z,1013.34
2023-02-01T00:55:49.240Z,1013.29
2023-02-01T00:56:49.232Z,1013.35
2023-02-01T00:57:49.213Z,1013.43
2023-02-01T00:58:49.199Z,1013.37
2023-02-01T00:59:49.202Z,1013.30
2023-02-01T01:00:49.221Z,1013.29
2023-02-01T01:01:49.198Z,1013.22
2023-02-01T01:02:49.159Z,1013.27
2023-02-01T01:03:49.173Z,1013.29
2023-02-01T01:04:49.152Z,1013.36
2023-02-01T01:05:49.135Z,1013.36
2023-02-01T01:06:49.091Z,1013.27
2023-02-01T01:07:49.089Z,1013.36
2023-02-01T01:08:49.100Z,1013.37
2023-02-01T01:09:49.083Z,1013.35
2023-02-01T01:10:49.077Z,1013.30
2023-02-01T01:11:49.044Z,1013.31
2023-02-01T01:12:49.044Z,1013.33
2023-02-01T01:13:49.042Z,1013.33
2023-02-01T01:14:49.026Z,1013.33
2023-02-01T01:15:49.029Z,1013.35
2023-02-01T01:16:49.005Z,1013.29
2023-02-01T01:17:48.971Z,1013.28
2023-02-01T01:18:49.002Z,1013.25
2023-02-01T01:19:48.991Z,1013.22
2023-02-01T01:20:48.996Z,1013.19
2023-02-01T01:21:48.955Z,1013.20
2023-02-01T01:22:48.921Z,1013.14
2023-02-01T01:23:48.939Z,1013.05
2023-02-01T01:24:48.934Z,1013.06
2023-02-01T01:25:48.889Z,1012.99
2023-02-01T01:26:48.969Z,1012.96
2023-02-01T01:27:48.880Z,1012.88
2023-02-01T01:28:48.870Z,1012.92
2023-02-01T01:29:48.840Z,1012.89
2023-02-01T01:30:48.886Z,1012.84
2023-02-01T01:31:48.892Z,1012.84
2023-02-01T01:32:48.828Z,1012.82
2023-02-01T01:33:48.810Z,1012.72
2023-02-01T01:34:48.810Z,1012.74
2023-02-01T01:35:48.814Z,1012.79
2023-02-01T01:36:48.779Z,1012.85
2023-02-01T01:37:48.794Z,1012.93
2023-02-01T01:38:48.747Z,1012.85
2023-02-01T01:39:48.737Z,1012.85
2023-02-01T01:40:48.742Z,1012.88
2023-02-01T01:41:48.728Z,1012.82
2023-02-01T01:42:48.698Z,1012.88
2023-02-01T01:43:48.712Z,1012.86
2023-02-01T01:44:48.698Z,1012.89
2023-02-01T01:45:48.672Z,1012.96
2023-02-01T01:46:48.706Z,1013.09
2023-02-01T01:47:48.666Z,1013.07
2023-02-01T01:48:48.652Z,1013.14
2023-02-01T01:49:48.641Z,1013.14
2023-02-01T01:50:48.610Z,1013.12
2023-02-01T01:51:48.635Z,1013.17
2023-02-01T01:52:48.608Z,1013.17
2023-02-01T01:53:48.597Z,1013.18
2023-02-01T01:54:48.601Z,1013.20
2023-02-01T01:55:48.582Z,1013.29
2023-02-01T01:56:48.558Z,1013.22
2023-02-01T01:57:48.555Z,1013.29
2023-02-01T01:58:48.530Z,1013.25
2023-02-01T01:59:48.533Z,1013.24
2023-02-01T02:00:48.557Z,1013.25
2023-02-01T02:01:48.639Z,1013.23
2023-02-01T02:02:48.499Z,1013.25
2023-02-01T02:03:48.492Z,1013.26
2023-02-01T02:04:48.479Z,1013.26
2023-02-01T02:05:48.466Z,1013.25
2023-02-01T02:06:48.443Z,1013.21
2023-02-01T02:07:48.485Z,1013.17
2023-02-01T02:08:48.432Z,1013.18
2023-02-01T02:09:59.913Z,1013.17
2023-02-01T02:10:49.403Z,1013.09
2023-02-01T02:11:48.389Z,1013.07
2023-02-01T02:12:48.399Z,1013.11
2023-02-01T02:13:48.399Z,1013.10
2023-02-01T02:14:48.369Z,1013.04
2023-02-01T02:15:48.344Z,1012.94
2023-02-01T02:16:48.343Z,1012.89
2023-02-01T02:17:48.335Z,1012.89
2023-02-01T02:18:48.322Z,1012.85
2023-02-01T02:19:48.299Z,1012.83
2023-02-01T02:20:48.307Z,1012.80
2023-02-01T02:21:48.297Z,1012.77
2023-02-01T02:22:48.284Z,1012.78
2023-02-01T02:23:48.281Z,1012.76
2023-02-01T02:24:48.260Z,1012.69
2023-02-01T02:25:48.274Z,1012.74
2023-02-01T02:26:48.239Z,1012.76
2023-02-01T02:27:48.208Z,1012.76
2023-02-01T02:28:48.234Z,1012.71
2023-02-01T02:29:48.207Z,1012.76
2023-02-01T02:30:48.360Z,1012.78
2023-02-01T02:31:48.240Z,1012.84
2023-02-01T02:32:48.167Z,1012.78
2023-02-01T02:33:48.171Z,1012.77
2023-02-01T02:34:48.176Z,1012.80
2023-02-01T02:35:48.181Z,1012.81
2023-02-01T02:36:48.141Z,1012.77
2023-02-01T02:37:48.122Z,1012.80
2023-02-01T02:38:48.107Z,1012.76
2023-02-01T02:39:48.119Z,1012.76
2023-02-01T02:40:48.095Z,1012.69
2023-02-01T02:41:48.079Z,1012.68
2023-02-01T02:42:48.068Z,1012.68
2023-02-01T02:43:48.035Z,1012.67
2023-02-01T02:44:48.030Z,1012.69
2023-02-01T02:45:48.076Z,1012.65
2023-02-01T02:46:48.014Z,1012.64
2023-02-01T02:47:48.012Z,1012.66
2023-02-01T02:48:48.015Z,1012.72
2023-02-01T02:49:48.010Z,1012.81
2023-02-01T02:50:47.981Z,1012.79
2023-02-01T02:51:47.970Z,1012.78
2023-02-01T02:52:47.953Z,1012.80
2023-02-01T02:53:47.933Z,1012.78
2023-02-01T02:54:47.996Z,1012.89
2023-02-01T02:55:47.952Z,1012.90
2023-02-01T02:56:47.910Z,1012.79
2023-02-01T02:57:47.941Z,1012.79
2023-02-01T02:58:47.887Z,1012.79
2023-02-01T02:59:47.881Z,1012.85
2023-02-01T03:00:47.948Z,1012.80
2023-02-01T03:01:47.856Z,1012.83
2023-02-01T03:02:47.889Z,1012.84
2023-02-01T03:03:47.817Z,1012.79
2023-02-01T03:04:47.835Z,1012.78
2023-02-01T03:05:47.817Z,1012.81
2023-02-01T03:06:47.809Z,1012.77
2023-02-01T03:07:47.827Z,1012.75
2023-02-01T03:08:47.809Z,1012.75
2023-02-01T03:09:47.758Z,1012.74
2023-02-01T03:10:47.766Z,1012.76
2023-02-01T03:11:47.788Z,1012.72
2023-02-01T03:12:47.756Z,1012.66
2023-02-01T03:13:47.730Z,1012.68
2023-02-01T03:14:47.719Z,1012.59
2023-02-01T03:15:47.706Z,1012.64
2023-02-01T03:16:47.755Z,1012.59
2023-02-01T03:17:47.682Z,1012.55
2023-02-01T03:18:47.695Z,1012.50
2023-02-01T03:19:47.664Z,1012.49
2023-02-01T03:20:47.654Z,1012.47
2023-02-01T03:21:47.634Z,1012.42
2023-02-01T03:22:47.651Z,1012.48
2023-02-01T03:23:47.633Z,1012.42
2023-02-01T03:24:47.620Z,1012.38
2023-02-01T03:25:47.593Z,1012.47
2023-02-01T03:26:47.671Z,1012.42
2023-02-01T03:27:47.605Z,1012.44
2023-02-01T03:28:47.567Z,1012.49
2023-02-01T03:29:47.572Z,1012.45
2023-02-01T03:30:47.556Z,1012.45
2023-02-01T03:31:47.596Z,1012.51
2023-02-01T03:32:47.532Z,1012.48
2023-02-01T03:33:47.524Z,1012.42
2023-02-01T03:34:47.509Z,1012.46
2023-02-01T03:35:47.496Z,1012.48
2023-02-01T03:36:47.464Z,1012.44
2023-02-01T03:37:47.467Z,1012.45
2023-02-01T03:38:47.459Z,1012.50
2023-02-01T03:39:47.491Z,1012.52
2023-02-01T03:40:47.439Z,1012.46
2023-02-01T03:41:47.417Z,1012.46
2023-02-01T03:42:47.415Z,1012.47
2023-02-01T03:43:47.431Z,1012.49
2023-02-01T03:44:47.427Z,1012.53
2023-02-01T03:45:47.479Z,1012.56
2023-02-01T03:46:47.380Z,1012.59
2023-02-01T03:47:47.363Z,1012.55
2023-02-01T03:48:47.333Z,1012.61
2023-02-01T03:49:47.330Z,1012.60
2023-02-01T03:50:47.321Z,1012.65
2023-02-01T03:51:47.364Z,1012.61
2023-02-01T03:52:47.315Z,1012.65
2023-02-01T03:53:47.295Z,1012.66
2023-02-01T03:54:47.305Z,1012.68
2023-02-01T03:55:47.258Z,1012.62
2023-02-01T03:56:47.252Z,1012.67
2023-02-01T03:57:47.265Z,1012.71
2023-02-01T03:58:47.243Z,1012.62
2023-02-01T03:59:47.251Z,1012.66
2023-02-01T04:00:47.218Z,1012.64
2023-02-01T04:01:47.188Z,1012.69
2023-02-01T04:02:47.323Z,1012.61
2023-02-01T04:03:47.196Z,1012.68
2023-02-01T04:04:47.173Z,1012.68
2023-02-01T04:05:47.145Z,1012.64
2023-02-01T04:06:47.154Z,1012.63
2023-02-01T04:07:47.125Z,1012.48
2023-02-01T04:08:47.126Z,1012.48
2023-02-01T04:09:47.109Z,1012.49
2023-02-01T04:10:47.102Z,1012.53
2023-02-01T04:11:47.086Z,1012.67
2023-02-01T04:12:47.105Z,1012.63
2023-02-01T04:13:47.074Z,1012.57
2023-02-01T04:14:47.089Z,1012.53
2023-02-01T04:15:47.063Z,1012.53
2023-02-01T04:16:47.066Z,1012.57
2023-02-01T04:17:47.022Z,1012.54
2023-02-01T04:18:47.040Z,1012.53
2023-02-01T04:19:47.001Z,1012.59
2023-02-01T04:20:47.017Z,1012.54
2023-02-01T04:21:46.990Z,1012.50
2023-02-01T04:22:46.992Z,1012.45
2023-02-01T04:23:47.025Z,1012.47
2023-02-01T04:24:46.943Z,1012.51
2023-02-01T04:25:46.990Z,1012.46
2023-02-01T04:26:46.965Z,1012.51
2023-02-01T04:27:46.915Z,1012.53
2023-02-01T04:28:46.924Z,1012.57
2023-02-01T04:29:46.898Z,1012.56
2023-02-01T04:30:47.025Z,1012.53
2023-02-01T04:31:47.007Z,1012.51
2023-02-01T04:32:46.874Z,1012.50
2023-02-01T04:33:46.880Z,1012.49
2023-02-01T04:34:46.857Z,1012.48
2023-02-01T04:35:46.854Z,1012.47
2023-02-01T04:36:47.404Z,1012.49
2023-02-01T04:37:46.857Z,1012.42
2023-02-01T04:38:46.795Z,1012.44
2023-02-01T04:39:46.788Z,1012.45
2023-02-01T04:40:46.832Z,1012.39
2023-02-01T04:41:46.754Z,1012.40
2023-02-01T04:42:46.757Z,1012.44
2023-02-01T04:43:46.809Z,1012.45
2023-02-01T04:44:46.743Z,1012.35
2023-02-01T04:45:46.817Z,1012.54
2023-02-01T04:46:46.718Z,1012.47
2023-02-01T04:47:46.741Z,1012.48
2023-02-01T04:48:46.697Z,1012.46
2023-02-01T04:49:46.714Z,1012.43
2023-02-01T04:50:46.677Z,1012.41
2023-02-01T04:51:46.649Z,1012.50
2023-02-01T04:52:46.710Z,1012.44
2023-02-01T04:53:46.652Z,1012.38
2023-02-01T04:54:46.626Z,1012.44
2023-02-01T04:55:46.618Z,1012.40
2023-02-01T04:56:46.615Z,1012.43
2023-02-01T04:57:46.594Z,1012.38
2023-02-01T04:58:46.607Z,1012.47
2023-02-01T04:59:46.566Z,1012.46
2023-02-01T05:00:46.565Z,1012.50
2023-02-01T05:01:48.852Z,1012.41
2023-02-01T05:02:46.576Z,1012.47
2023-02-01T05:03:46.571Z,1012.44
2023-02-01T05:04:46.586Z,1012.45
2023-02-01T05:05:46.500Z,1012.44
2023-02-01T05:06:46.485Z,1012.47
2023-02-01T05:07:46.501Z,1012.41
2023-02-01T05:08:46.465Z,1012.36
2023-02-01T05:09:46.465Z,1012.45
2023-02-01T05:10:46.460Z,1012.39
2023-02-01T05:11:46.449Z,1012.36
2023-02-01T05:12:46.437Z,1012.31
2023-02-01T05:13:46.429Z,1012.36
2023-02-01T05:14:46.396Z,1012.26
2023-02-01T05:15:46.492Z,1012.19
2023-02-01T05:16:46.387Z,1012.27
2023-02-01T05:17:46.379Z,1012.18
2023-02-01T05:18:46.358Z,1012.23
2023-02-01T05:19:46.449Z,1012.19
2023-02-01T05:20:46.335Z,1012.17
2023-02-01T05:21:46.326Z,1012.19
2023-02-01T05:22:46.346Z,1012.20
2023-02-01T05:23:46.307Z,1012.08
2023-02-01T05:24:46.312Z,1012.22
2023-02-01T05:25:46.319Z,1012.24
2023-02-01T05:26:46.348Z,1012.10
2023-02-01T05:27:46.279Z,1012.12
2023-02-01T05:28:46.272Z,1012.11
2023-02-01T05:29:46.282Z,1012.22
2023-02-01T05:30:46.315Z,1012.19
2023-02-01T05:31:46.440Z,1012.12
2023-02-01T05:32:46.203Z,1012.27
2023-02-01T05:33:46.214Z,1012.18
2023-02-01T05:34:46.186Z,1012.29
2023-02-01T05:35:46.220Z,1012.21
2023-02-01T05:36:46.188Z,1012.23
2023-02-01T05:37:46.171Z,1012.46
2023-02-01T05:38:46.168Z,1012.30
2023-02-01T05:39:46.159Z,1012.20
2023-02-01T05:40:46.132Z,1012.30
2023-02-01T05:41:46.105Z,1012.46
2023-02-01T05:42:46.110Z,1012.46
2023-02-01T05:43:46.162Z,1012.40
2023-02-01T05:44:46.068Z,1012.47
2023-02-01T05:45:46.063Z,1012.43
2023-02-01T05:46:46.046Z,1012.42
2023-02-01T05:47:46.069Z,1012.50
2023-02-01T05:48:46.040Z,1012.48
2023-02-01T05:49:46.058Z,1012.60
2023-02-01T05:50:46.032Z,1012.49
2023-02-01T05:51:46.035Z,1012.46
2023-02-01T05:52:46.010Z,1012.46
2023-02-01T05:53:46.002Z,1012.44
2023-02-01T05:54:45.991Z,1012.58
2023-02-01T05:55:45.978Z,1012.39
2023-02-01T05:56:45.946Z,1012.40
2023-02-01T05:57:45.933Z,1012.46
2023-02-01T05:58:45.943Z,1012.45
2023-02-01T05:59:45.942Z,1012.46
2023-02-01T06:00:45.918Z,1012.53
2023-02-01T06:01:45.907Z,1012.47
2023-02-01T06:02:45.952Z,1012.47
2023-02-01T06:03:45.896Z,1012.35
2023-02-01T06:04:45.853Z,1012.38
2023-02-01T06:05:45.878Z,1012.35
2023-02-01T06:06:45.857Z,1012.31
2023-02-01T06:07:45.876Z,1012.33
2023-02-01T06:08:45.851Z,1012.27
2023-02-01T06:09:45.807Z,1012.33
2023-02-01T06:10:45.815Z,1012.34
2023-02-01T06:11:45.823Z,1012.30
2023-02-01T06:12:45.829Z,1012.21
2023-02-01T06:13:45.771Z,1012.19
2023-02-01T06:14:45.768Z,1012.24
2023-02-01T06:15:45.808Z,1012.30
2023-02-01T06:16:45.758Z,1012.25
2023-02-01T06:17:45.756Z,1012.43
2023-02-01T06:18:45.710Z,1012.28
2023-02-01T06:19:45.738Z,1012.37
2023-02-01T06:20:45.692Z,1012.33
2023-02-01T06:21:45.704Z,1012.27
2023-02-01T06:22:45.681Z,1012.31
2023-02-01T06:23:45.691Z,1012.39
2023-02-01T06:24:45.635Z,1012.30
2023-02-01T06:25:45.645Z,1012.30
2023-02-01T06:26:45.721Z,1012.24
2023-02-01T06:27:45.633Z,1012.32
2023-02-01T06:28:45.613Z,1012.39
2023-02-01T06:29:45.594Z,1012.33
2023-02-01T06:30:45.578Z,1012.26
2023-02-01T06:31:45.681Z,1012.29
2023-02-01T06:32:45.584Z,1012.27
2023-02-01T06:33:45.550Z,1012.25
2023-02-01T06:34:45.525Z,1012.31
2023-02-01T06:35:45.557Z,1012.28
2023-02-01T06:36:45.518Z,1012.29
2023-02-01T06:37:45.518Z,1012.35
2023-02-01T06:38:45.508Z,1012.29
2023-02-01T06:39:45.504Z,1012.30
2023-02-01T06:40:45.482Z,1012.29
2023-02-01T06:41:45.490Z,1012.29
2023-02-01T06:42:45.455Z,1012.29
2023-02-01T06:43:45.447Z,1012.32
2023-02-01T06:44:45.426Z,1012.33
2023-02-01T06:45:45.419Z,1012.35
2023-02-01T06:46:45.456Z,1012.39
2023-02-01T06:47:45.400Z,1012.35
2023-02-01T06:48:45.403Z,1012.35
2023-02-01T06:49:45.391Z,1012.36
2023-02-01T06:50:45.361Z,1012.35
2023-02-01T06:51:45.378Z,1012.37
2023-02-01T06:52:45.352Z,1012.40
2023-02-01T06:53:45.360Z,1012.43
2023-02-01T06:54:45.338Z,1012.41
2023-02-01T06:55:45.330Z,1012.43
2023-02-01T06:56:45.309Z,1012.49
2023-02-01T06:57:45.322Z,1012.48
2023-02-01T06:58:45.277Z,1012.52
2023-02-01T06:59:45.266Z,1012.59
2023-02-01T07:00:45.327Z,1012.62
2023-02-01T07:01:45.300Z,1012.62
2023-02-01T07:02:45.240Z,1012.68
2023-02-01T07:03:45.207Z,1012.64
2023-02-01T07:04:45.212Z,1012.71
2023-02-01T07:05:45.224Z,1012.74
2023-02-01T07:06:45.189Z,1012.72
2023-02-01T07:07:45.160Z,1012.79
2023-02-01T07:08:45.829Z,1012.73
2023-02-01T07:09:45.185Z,1012.85
2023-02-01T07:10:45.152Z,1012.82
2023-02-01T07:11:45.150Z,1012.85
2023-02-01T07:12:45.123Z,1012.81
2023-02-01T07:13:45.113Z,1012.89
2023-02-01T07:14:45.091Z,1012.92
2023-02-01T07:15:45.128Z,1012.86
2023-02-01T07:16:45.085Z,1012.91
2023-02-01T07:17:45.071Z,1012.86
2023-02-01T07:18:45.111Z,1012.87
2023-02-01T07:19:45.063Z,1012.84
2023-02-01T07:20:45.033Z,1012.89
2023-02-01T07:21:45.042Z,1012.86
2023-02-01T07:22:45.027Z,1012.87
2023-02-01T07:23:45.017Z,1012.86
2023-02-01T07:24:45.009Z,1012.91
2023-02-01T07:25:44.971Z,1012.81
2023-02-01T07:26:45.053Z,1012.82
2023-02-01T07:27:44.977Z,1012.81
2023-02-01T07:28:44.987Z,1012.87
2023-02-01T07:29:44.946Z,1012.88
2023-02-01T07:30:44.960Z,1012.90
2023-02-01T07:31:44.955Z,1012.89
2023-02-01T07:32:44.982Z,1012.95
2023-02-01T07:33:44.885Z,1013.00
2023-02-01T07:34:44.899Z,1012.97
2023-02-01T07:35:44.870Z,1012.96
2023-02-01T07:36:44.871Z,1012.99
2023-02-01T07:37:44.858Z,1012.97
2023-02-01T07:38:44.863Z,1013.07
2023-02-01T07:39:44.817Z,1012.98
2023-02-01T07:40:44.827Z,1013.08
2023-02-01T07:41:44.819Z,1013.25
2023-02-01T07:42:44.789Z,1013.16
2023-02-01T07:43:44.895Z,1013.25
2023-02-01T07:44:44.777Z,1013.29
2023-02-01T07:45:44.813Z,1013.26
2023-02-01T07:46:44.761Z,1013.24
2023-02-01T07:47:44.741Z,1013.27
2023-02-01T07:48:44.728Z,1013.22
2023-02-01T07:49:44.708Z,1013.20
2023-02-01T07:50:44.724Z,1013.16
2023-02-01T07:51:44.707Z,1013.17
2023-02-01T07:52:44.723Z,1013.11
2023-02-01T07:53:44.681Z,1013.16
2023-02-01T07:54:44.667Z,1013.14
2023-02-01T07:55:44.654Z,1013.10
2023-02-01T07:56:44.680Z,1013.10
2023-02-01T07:57:44.648Z,1013.13
2023-02-01T07:58:44.621Z,1013.11
2023-02-01T07:59:44.629Z,1013.02
2023-02-01T08:00:44.678Z,1013.11
2023-02-01T08:01:44.622Z,1013.09
2023-02-01T08:02:44.561Z,1013.15
2023-02-01T08:03:44.555Z,1013.08
2023-02-01T08:04:44.537Z,1013.08
2023-02-01T08:05:44.559Z,1013.11
2023-02-01T08:06:44.900Z,1013.10
2023-02-01T08:07:44.516Z,1013.12
2023-02-01T08:08:44.507Z,1013.11
2023-02-01T08:09:44.514Z,1013.15
2023-02-01T08:10:44.497Z,1013.15
2023-02-01T08:11:44.496Z,1013.13
2023-02-01T08:12:44.492Z,1013.10
2023-02-01T08:13:44.465Z,1013.20
2023-02-01T08:14:44.461Z,1013.30
2023-02-01T08:15:44.473Z,1013.19
2023-02-01T08:16:44.492Z,1013.25
2023-02-01T08:17:46.322Z,1013.26
2023-02-01T08:18:44.436Z,1013.36
2023-02-01T08:19:44.404Z,1013.28
2023-02-01T08:20:44.401Z,1013.31
2023-02-01T08:21:44.391Z,1013.32
2023-02-01T08:22:44.396Z,1013.33
2023-02-01T08:23:44.384Z,1013.29
2023-02-01T08:24:44.344Z,1013.27
2023-02-01T08:25:44.356Z,1013.24
2023-02-01T08:26:44.338Z,1013.31
2023-02-01T08:27:44.291Z,1013.23
2023-02-01T08:28:44.276Z,1013.20
2023-02-01T08:29:44.296Z,1013.35
2023-02-01T08:30:44.310Z,1013.22
2023-02-01T08:31:44.477Z,1013.21
2023-02-01T08:32:44.286Z,1013.08
2023-02-01T08:33:44.262Z,1013.01
2023-02-01T08:34:44.213Z,1013.07
2023-02-01T08:35:44.436Z,1013.14
2023-02-01T08:36:44.200Z,1013.20
2023-02-01T08:37:44.866Z,1013.17
2023-02-01T08:38:44.194Z,1013.17
2023-02-01T08:39:46.207Z,1013.19
2023-02-01T08:40:44.176Z,1013.22
2023-02-01T08:41:44.155Z,1013.14
2023-02-01T08:42:44.144Z,1013.24
2023-02-01T08:43:44.122Z,1013.19
2023-02-01T08:44:44.112Z,1013.20
2023-02-01T08:45:44.162Z,1013.23
2023-02-01T08:46:44.105Z,1013.22
2023-02-01T08:47:44.122Z,1013.27
2023-02-01T08:48:44.158Z,1013.20
2023-02-01T08:49:44.066Z,1013.30
2023-02-01T08:50:44.055Z,1013.36
2023-02-01T08:51:44.067Z,1013.37
2023-02-01T08:52:44.084Z,1013.39
2023-02-01T08:53:44.053Z,1013.41
2023-02-01T08:54:44.019Z,1013.31
2023-02-01T08:55:44.005Z,1013.41
2023-02-01T08:56:44.035Z,1013.31
2023-02-01T08:57:43.990Z,1013.40
2023-02-01T08:58:43.990Z,1013.40
2023-02-01T08:59:43.943Z,1013.49
2023-02-01T09:00:43.932Z,1013.48
2023-02-01T09:01:43.947Z,1013.57
2023-02-01T09:02:43.947Z,1013.53
2023-02-01T09:03:43.998Z,1013.45
2023-02-01T09:04:43.919Z,1013.52
2023-02-01T09:05:49.463Z,1013.59
2023-02-01T09:06:44.880Z,1013.59
2023-02-01T09:07:43.883Z,1013.65
2023-02-01T09:08:43.891Z,1013.64
2023-02-01T09:09:43.852Z,1013.61
2023-02-01T09:10:43.834Z,1013.65
2023-02-01T09:11:43.830Z,1013.48
2023-02-01T09:12:43.865Z,1013.63
2023-02-01T09:13:43.857Z,1013.55
2023-02-01T09:14:43.820Z,1013.56
2023-02-01T09:15:43.877Z,1013.64
2023-02-01T09:16:43.769Z,1013.47
2023-02-01T09:17:43.765Z,1013.44
2023-02-01T09:18:55.520Z,1013.56
2023-02-01T09:19:44.749Z,1013.55
2023-02-01T09:20:43.730Z,1013.46
2023-02-01T09:21:43.731Z,1013.52
2023-02-01T09:22:43.696Z,1013.54
2023-02-01T09:23:43.735Z,1013.64
2023-02-01T09:24:43.751Z,1013.48
2023-02-01T09:25:43.686Z,1013.63
2023-02-01T09:26:43.770Z,1013.57
2023-02-01T09:27:43.669Z,1013.56
2023-02-01T09:28:43.647Z,1013.39
2023-02-01T09:29:43.610Z,1013.42
2023-02-01T09:30:43.733Z,1013.47
2023-02-01T09:31:49.915Z,1013.46
2023-02-01T09:32:44.588Z,1013.56
2023-02-01T09:33:43.574Z,1013.48
2023-02-01T09:34:43.583Z,1013.47
2023-02-01T09:35:43.627Z,1013.48
2023-02-01T09:36:43.546Z,1013.44
2023-02-01T09:37:43.550Z,1013.46
2023-02-01T09:38:52.286Z,1013.41
2023-02-01T09:39:44.536Z,1013.70
2023-02-01T09:40:43.541Z,1013.49
2023-02-01T09:41:43.484Z,1013.54
2023-02-01T09:42:43.499Z,1013.46
2023-02-01T09:43:43.525Z,1013.49
2023-02-01T09:44:44.603Z,1013.35
2023-02-01T09:45:43.459Z,1013.46
2023-02-01T09:46:43.472Z,1013.77
2023-02-01T09:47:43.433Z,1013.61
2023-02-01T09:48:43.404Z,1013.53
2023-02-01T09:49:43.483Z,1013.68
2023-02-01T09:50:43.395Z,1013.44
2023-02-01T09:51:43.428Z,1013.67
2023-02-01T09:52:43.379Z,1013.57
2023-02-01T09:53:43.374Z,1013.59
2023-02-01T09:54:43.398Z,1013.59
2023-02-01T09:55:43.376Z,1013.58
2023-02-01T09:56:43.347Z,1013.58
2023-02-01T09:57:43.327Z,1013.70
2023-02-01T09:58:43.329Z,1013.62
2023-02-01T09:59:43.325Z,1013.66
2023-02-01T10:00:43.322Z,1013.60
2023-02-01T10:01:43.337Z,1013.55
2023-02-01T10:02:43.254Z,1013.53
2023-02-01T10:03:43.336Z,1013.58
2023-02-01T10:04:43.255Z,1013.56
2023-02-01T10:05:43.254Z,1013.48
2023-02-01T10:06:43.250Z,1013.57
2023-02-01T10:07:43.225Z,1013.49
2023-02-01T10:08:43.202Z,1013.45
2023-02-01T10:09:43.230Z,1013.51
2023-02-01T10:10:43.167Z,1013.45
2023-02-01T10:11:43.177Z,1013.40
2023-02-01T10:12:43.244Z,1013.38
2023-02-01T10:13:43.151Z,1013.39
2023-02-01T10:14:43.129Z,1013.39
2023-02-01T10:15:43.194Z,1013.44
2023-02-01T10:16:43.249Z,1012.80
2023-02-01T10:17:43.115Z,1013.35
2023-02-01T10:18:43.095Z,1013.45
2023-02-01T10:19:43.064Z,1013.45
2023-02-01T10:20:43.082Z,1013.19
2023-02-01T10:21:43.089Z,1013.27
2023-02-01T10:23:08.738Z,1013.21
2023-02-01T10:23:44.080Z,1013.27
2023-02-01T10:24:43.044Z,1013.19
2023-02-01T10:25:43.052Z,1013.29
2023-02-01T10:26:43.058Z,1013.31
2023-02-01T10:27:43.003Z,1013.28
2023-02-01T10:28:42.973Z,1013.21
2023-02-01T10:29:42.972Z,1013.22
2023-02-01T10:30:43.031Z,1013.25
2023-02-01T10:31:43.122Z,1013.14
2023-02-01T10:32:42.930Z,1013.17
2023-02-01T10:33:42.930Z,1013.23
2023-02-01T10:34:42.911Z,1013.14
2023-02-01T10:35:42.925Z,1013.30
2023-02-01T10:36:42.922Z,1013.23
2023-02-01T10:37:42.914Z,1013.29
2023-02-01T10:38:42.876Z,1013.11
2023-02-01T10:39:42.873Z,1013.26
2023-02-01T10:40:42.888Z,1013.15
2023-02-01T10:41:42.837Z,1013.18
2023-02-01T10:42:42.832Z,1013.17
2023-02-01T10:43:42.838Z,1013.32
2023-02-01T10:44:42.857Z,1013.21
2023-02-01T10:45:42.813Z,1013.13
2023-02-01T10:46:42.931Z,1013.26
2023-02-01T10:47:42.768Z,1013.19
2023-02-01T10:48:42.769Z,1013.08
2023-02-01T10:49:42.780Z,1013.12
2023-02-01T10:50:42.764Z,1013.33
2023-02-01T10:51:42.746Z,1013.08
2023-02-01T10:52:42.710Z,1013.23
2023-02-01T10:53:42.717Z,1013.21
2023-02-01T10:54:42.721Z,1013.17
2023-02-01T10:55:42.748Z,1012.99
2023-02-01T10:56:42.660Z,1013.05
2023-02-01T10:57:42.678Z,1013.42
2023-02-01T10:58:42.645Z,1013.07
2023-02-01T10:59:44.924Z,1013.12
2023-02-01T11:00:42.634Z,1012.96
2023-02-01T11:01:42.711Z,1013.03
2023-02-01T11:02:42.659Z,1013.13
2023-02-01T11:03:42.622Z,1013.01
2023-02-01T11:04:42.609Z,1013.12
2023-02-01T11:05:44.090Z,1012.99
2023-02-01T11:06:42.551Z,1012.99
2023-02-01T11:07:42.554Z,1013.00
2023-02-01T11:08:42.555Z,1012.87
2023-02-01T11:09:42.551Z,1012.92
2023-02-01T11:10:42.597Z,1012.92
2023-02-01T11:11:42.568Z,1012.80
2023-02-01T11:12:42.493Z,1012.85
2023-02-01T11:13:42.509Z,1012.84
2023-02-01T11:14:42.488Z,1012.95
2023-02-01T11:15:42.569Z,1012.81
2023-02-01T11:16:42.442Z,1012.76
2023-02-01T11:17:42.474Z,1012.86
2023-02-01T11:18:42.441Z,1012.82
2023-02-01T11:19:42.435Z,1013.08
2023-02-01T11:20:42.395Z,1012.88
2023-02-01T11:21:42.408Z,1012.86
2023-02-01T11:22:42.375Z,1012.77
2023-02-01T11:23:42.384Z,1012.92
2023-02-01T11:24:42.384Z,1013.11
2023-02-01T11:25:42.414Z,1012.91
2023-02-01T11:26:42.434Z,1012.81
2023-02-01T11:27:53.175Z,1012.97
2023-02-01T11:28:43.346Z,1013.29
2023-02-01T11:29:42.305Z,1012.84
2023-02-01T11:30:42.312Z,1012.81
2023-02-01T11:31:42.364Z,1012.90
2023-02-01T11:32:42.303Z,1012.96
2023-02-01T11:33:42.282Z,1013.01
2023-02-01T11:34:42.311Z,1013.01
2023-02-01T11:35:42.248Z,1012.96
2023-02-01T11:36:42.266Z,1013.18
2023-02-01T11:37:42.246Z,1013.10
2023-02-01T11:38:42.226Z,1013.09
2023-02-01T11:39:42.222Z,1013.12
2023-02-01T11:40:42.193Z,1013.06
2023-02-01T11:41:42.204Z,1012.85
2023-02-01T11:42:42.175Z,1012.97
2023-02-01T11:43:42.182Z,1012.88
2023-02-01T11:44:42.154Z,1012.80
2023-02-01T11:45:42.160Z,1012.79
2023-02-01T11:46:42.233Z,1012.77
2023-02-01T11:47:42.151Z,1012.69
2023-02-01T11:48:42.092Z,1012.70
2023-02-01T11:49:42.084Z,1012.78
2023-02-01T11:50:42.126Z,1012.79
2023-02-01T11:51:42.084Z,1012.87
2023-02-01T11:52:42.129Z,1012.86
2023-02-01T11:53:42.051Z,1012.75
2023-02-01T11:54:42.085Z,1012.67
2023-02-01T11:55:42.129Z,1012.62
2023-02-01T11:56:42.035Z,1012.55
2023-02-01T11:57:42.037Z,1012.51
2023-02-01T11:58:42.408Z,1012.57
2023-02-01T11:59:45.881Z,1012.60
2023-02-01T12:00:42.963Z,1012.58
2023-02-01T12:01:42.010Z,1012.60
2023-02-01T12:02:41.985Z,1012.63
2023-02-01T12:03:41.929Z,1012.68
2023-02-01T12:04:41.947Z,1012.53
2023-02-01T12:05:41.931Z,1012.55